Time;durP1;ratioP1;P1;durP2;ratioP2;P2;SDS_P1;SDS_P2;PMS_P1;PMS_P2;Temp;Humidity;BMP_temperature;BMP_pressure;BME280_temperature;BME280_humidity;BME280_pressure;Samples;Min_cycle;Max_cycle;Signal;HPM_P1;HPM_P2
2022/12/19 00:01:16;;;;;;;;;;;;;;;-0.54;100.00;101876.81;5084696;28;20019;-71
2022/12/19 00:03:42;;;;;;;;;;;;;;;-0.52;100.00;101877.59;5084693;28;19931;-71
2022/12/19 00:06:08;;;;;;;;;;;;;;;-0.49;100.00;101869.69;5082846;28;19924;-71
2022/12/19 00:08:33;;;;;;;;;;;;;;;-0.49;100.00;101858.47;5083391;28;20041;-71
2022/12/19 00:11:00;;;;;;;;;;;;;;;-0.53;100.00;101862.91;5083053;28;19921;-72
2022/12/19 00:13:26;;;;;;;;;;;;;;;-0.47;100.00;101854.94;5082955;28;19919;-72
2022/12/19 00:15:51;;;;;;;;;;;;;;;-0.42;100.00;101827.06;5084206;28;19941;-72
2022/12/19 00:18:17;;;;;;;;;;;;;;;-0.45;100.00;101842.75;5082317;28;20197;-72
2022/12/19 00:20:42;;;;;;;;;;;;;;;-0.40;100.00;101824.44;5081688;28;20309;-72
2022/12/19 00:23:07;;;;;;;;;;;;;;;-0.38;100.00;101834.75;5082192;28;19953;-72
2022/12/19 00:25:32;;;;;;;;;;;;;;;-0.38;100.00;101845.13;5082596;28;20410;-72
2022/12/19 00:27:58;;;;;;;;;;;;;;;-0.40;100.00;101831.38;5082770;28;19920;-72
2022/12/19 00:30:23;;;;;;;;;;;;;;;-0.38;100.00;101816.59;5082732;28;19919;-73
2022/12/19 00:32:48;;;;;;;;;;;;;;;-0.39;100.00;101796.75;5083040;28;20069;-73
2022/12/19 00:35:14;;;;;;;;;;;;;;;-0.34;100.00;101795.69;5080680;28;20335;-73
2022/12/19 00:37:39;;;;;;;;;;;;;;;-0.35;100.00;101804.34;5083620;28;19985;-73
2022/12/19 00:40:05;;;;;;;;;;;;;;;-0.28;100.00;101805.84;5082016;28;19920;-73
2022/12/19 00:42:30;;;;;;;;;;;;;;;-0.27;100.00;101807.50;5082237;28;19921;-73
2022/12/19 00:44:56;;;;;;;;;;;;;;;-0.25;100.00;101792.75;5082990;28;20307;-73
2022/12/19 00:47:21;;;;;;;;;;;;;;;-0.26;100.00;101792.78;5081243;28;20248;-73
2022/12/19 00:49:46;;;;;;;;;;;;;;;-0.22;100.00;101784.00;5082286;28;20398;-73
2022/12/19 00:52:11;;;;;;;;;;;;;;;-0.18;100.00;101779.53;5082773;28;19977;-73
2022/12/19 00:54:37;;;;;;;;;;;;;;;-0.15;100.00;101775.09;5082611;28;20015;-73
2022/12/19 00:57:02;;;;;;;;;;;;;;;-0.14;100.00;101765.56;5079838;28;20034;-72
2022/12/19 00:59:27;;;;;;;;;;;;;;;-0.17;100.00;101766.53;5082626;28;20056;-72
2022/12/19 01:01:52;;;;;;;;;;;;;;;-0.17;100.00;101757.88;5088207;28;20356;-73
2022/12/19 01:04:18;;;;;;;;;;;;;;;-0.20;100.00;101751.06;5087264;28;20043;-73
2022/12/19 01:06:43;;;;;;;;;;;;;;;-0.18;100.00;101763.97;5083127;28;20010;-73
2022/12/19 01:09:10;;;;;;;;;;;;;;;-0.19;100.00;101757.94;5084765;28;19970;-73
2022/12/19 01:14:19;;;;;;;;;;;;;;;-0.19;100.00;101739.78;5091546;28;20048;-73
2022/12/19 01:16:44;;;;;;;;;;;;;;;-0.15;100.00;101738.78;5089928;28;19916;-74
2022/12/19 01:19:09;;;;;;;;;;;;;;;-0.16;100.00;101737.06;5088652;28;20423;-73
2022/12/19 01:21:34;;;;;;;;;;;;;;;-0.16;100.00;101741.41;5087534;28;20162;-73
2022/12/19 01:24:00;;;;;;;;;;;;;;;-0.16;100.00;101752.63;5087175;28;20348;-73
2022/12/19 01:26:25;;;;;;;;;;;;;;;-0.13;100.00;101747.34;5087002;28;20022;-74
2022/12/19 01:28:51;;;;;;;;;;;;;;;-0.13;100.00;101752.53;5086086;28;20230;-73
2022/12/19 01:31:16;;;;;;;;;;;;;;;-0.10;100.00;101752.41;5086427;28;20402;-73
2022/12/19 01:33:41;;;;;;;;;;;;;;;-0.08;100.00;101754.94;5088061;28;20250;-73
2022/12/19 01:36:06;;;;;;;;;;;;;;;-0.09;100.00;101751.47;5083322;28;19920;-73
2022/12/19 01:38:33;;;;;;;;;;;;;;;-0.09;100.00;101754.06;5085133;28;19926;-73
2022/12/19 01:40:58;;;;;;;;;;;;;;;-0.07;100.00;101752.28;5085671;28;19916;-73
2022/12/19 01:43:25;;;;;;;;;;;;;;;-0.06;100.00;101751.38;5085172;28;19955;-74
2022/12/19 01:45:54;;;;;;;;;;;;;;;-0.02;100.00;101747.75;5084251;28;19921;-74
2022/12/19 01:48:27;;;;;;;;;;;;;;;-0.03;100.00;101725.31;5089087;28;20421;-73
2022/12/19 01:50:57;;;;;;;;;;;;;;;0.01;100.00;101723.44;5085560;28;19930;-74
2022/12/19 01:53:28;;;;;;;;;;;;;;;0.05;100.00;101719.81;5086980;28;20394;-74
2022/12/19 01:55:54;;;;;;;;;;;;;;;0.07;100.00;101722.38;5084578;28;19927;-74
2022/12/19 01:58:19;;;;;;;;;;;;;;;0.08;100.00;101709.31;5084051;28;20232;-74
2022/12/19 02:00:44;;;;;;;;;;;;;;;0.09;100.00;101723.16;5086670;28;20328;-74
2022/12/19 02:03:13;;;;;;;;;;;;;;;0.13;100.00;101716.91;5074021;28;20414;-74
2022/12/19 02:05:38;;;;;;;;;;;;;;;0.13;100.00;101709.13;5091886;27;19935;-74
2022/12/19 02:08:04;;;;;;;;;;;;;;;0.19;100.00;101711.47;5085351;28;19926;-74
2022/12/19 02:10:29;;;;;;;;;;;;;;;0.18;100.00;101709.78;5085774;28;20333;-74
2022/12/19 02:12:55;;;;;;;;;;;;;;;0.13;100.00;101693.53;5087178;28;20163;-73
2022/12/19 02:15:20;;;;;;;;;;;;;;;0.18;100.00;101699.41;5084018;28;20170;-73
2022/12/19 02:17:45;;;;;;;;;;;;;;;0.18;100.00;101683.84;5083625;28;19924;-74
2022/12/19 02:20:17;;;;;;;;;;;;;;;0.17;100.00;101682.13;5084883;28;19919;-73
2022/12/19 02:22:54;;;;;;;;;;;;;;;0.22;100.00;101685.41;5084324;28;20014;-73
2022/12/19 02:25:25;;;;;;;;;;;;;;;0.24;100.00;101682.72;5084312;28;20112;-73
2022/12/19 02:27:56;;;;;;;;;;;;;;;0.27;100.00;101688.66;5085365;28;19915;-74
2022/12/19 02:30:27;;;;;;;;;;;;;;;0.26;100.00;101686.97;5086526;28;19915;-74
2022/12/19 02:33:01;;;;;;;;;;;;;;;0.27;100.00;101678.25;5088001;28;19922;-74
2022/12/19 02:35:40;;;;;;;;;;;;;;;0.25;100.00;101690.47;5084685;28;19915;-74
2022/12/19 02:38:17;;;;;;;;;;;;;;;0.26;100.00;101686.09;5083283;27;19964;-74
2022/12/19 02:40:53;;;;;;;;;;;;;;;0.19;100.00;101701.09;5083684;28;20018;-75
2022/12/19 02:43:18;;;;;;;;;;;;;;;0.17;100.00;101714.16;5084487;28;20026;-73
2022/12/19 02:45:45;;;;;;;;;;;;;;;0.15;100.00;101709.91;5085288;28;19976;-74
2022/12/19 02:48:11;;;;;;;;;;;;;;;0.12;100.00;101699.66;5085802;28;20107;-74
2022/12/19 02:50:37;;;;;;;;;;;;;;;0.14;100.00;101687.47;5083303;28;19919;-74
2022/12/19 02:53:03;;;;;;;;;;;;;;;0.10;100.00;101691.91;5082293;28;19916;-73
2022/12/19 02:55:30;;;;;;;;;;;;;;;0.11;100.00;101690.16;5084696;28;20475;-74
2022/12/19 02:58:09;;;;;;;;;;;;;;;0.13;100.00;101686.63;5084305;28;20159;-74
2022/12/19 03:00:40;;;;;;;;;;;;;;;0.13;100.00;101690.94;5085352;28;19915;-74
2022/12/19 03:03:23;;;;;;;;;;;;;;;0.07;100.00;101702.44;5085307;28;19915;-75
2022/12/19 03:06:03;;;;;;;;;;;;;;;0.12;100.00;101699.66;5086209;28;19968;-74
2022/12/19 03:08:37;;;;;;;;;;;;;;;0.10;100.00;101691.09;5084012;28;19920;-74
2022/12/19 03:11:02;;;;;;;;;;;;;;;0.07;100.00;101693.81;5085328;28;20071;-74
2022/12/19 03:13:36;;;;;;;;;;;;;;;0.12;100.00;101694.47;5083622;28;19922;-74
2022/12/19 03:16:03;;;;;;;;;;;;;;;0.13;100.00;101680.56;5084759;28;19916;-74
2022/12/19 03:18:30;;;;;;;;;;;;;;;0.14;100.00;101700.44;5083591;28;19920;-74
2022/12/19 03:21:21;;;;;;;;;;;;;;;0.18;100.00;101689.88;5083631;28;19939;-74
2022/12/19 03:23:47;;;;;;;;;;;;;;;0.19;100.00;101690.69;5082602;28;20404;-74
2022/12/19 03:26:20;;;;;;;;;;;;;;;0.22;100.00;101685.41;5078012;28;19945;-74
2022/12/19 03:28:49;;;;;;;;;;;;;;;0.21;100.00;101707.06;5083074;28;19920;-74
2022/12/19 03:31:16;;;;;;;;;;;;;;;0.26;100.00;101699.09;5084172;28;19969;-73
2022/12/19 03:33:42;;;;;;;;;;;;;;;0.27;100.00;101693.84;5083082;28;19924;-73
2022/12/19 03:36:10;;;;;;;;;;;;;;;0.29;100.00;101706.75;5083008;28;20362;-74
2022/12/19 03:38:37;;;;;;;;;;;;;;;0.32;100.00;101702.28;5083647;28;19915;-73
2022/12/19 03:41:04;;;;;;;;;;;;;;;0.33;100.00;101692.75;5084459;28;19919;-73
2022/12/19 03:43:31;;;;;;;;;;;;;;;0.34;100.00;101695.25;5083956;28;19923;-73
2022/12/19 03:45:58;;;;;;;;;;;;;;;0.35;100.00;101701.31;5084099;28;20582;-73
2022/12/19 03:48:43;;;;;;;;;;;;;;;0.38;100.00;101707.22;5081869;28;19919;-73
2022/12/19 03:51:24;;;;;;;;;;;;;;;0.43;100.00;101701.84;5085277;28;19969;-73
2022/12/19 03:53:59;;;;;;;;;;;;;;;0.47;100.00;101720.75;5084890;28;19915;-73
2022/12/19 03:56:24;;;;;;;;;;;;;;;0.44;100.00;101715.69;5083216;28;20135;-73
2022/12/19 03:58:51;;;;;;;;;;;;;;;0.48;100.00;101706.84;5082094;28;20602;-72
2022/12/19 04:01:18;;;;;;;;;;;;;;;0.47;100.00;101694.78;5083842;28;20653;-74
2022/12/19 04:03:43;;;;;;;;;;;;;;;0.51;100.00;101698.94;5082782;28;19967;-73
2022/12/19 04:06:09;;;;;;;;;;;;;;;0.50;100.00;101689.44;5084226;28;20014;-73
2022/12/19 04:08:35;;;;;;;;;;;;;;;0.51;100.00;101688.53;5081347;28;19938;-73
2022/12/19 04:11:09;;;;;;;;;;;;;;;0.52;100.00;101687.63;5082224;28;19920;-73
2022/12/19 04:13:37;;;;;;;;;;;;;;;0.56;100.00;101695.22;5081932;28;19916;-73
2022/12/19 04:16:11;;;;;;;;;;;;;;;0.60;100.00;101682.94;5083830;28;19916;-73
2022/12/19 04:18:38;;;;;;;;;;;;;;;0.61;100.00;101687.25;5084046;28;20014;-73
2022/12/19 04:21:11;;;;;;;;;;;;;;;0.63;100.00;101682.81;5083861;28;20367;-73
2022/12/19 04:23:39;;;;;;;;;;;;;;;0.66;100.00;101677.50;5082529;28;20401;-73
2022/12/19 04:26:06;;;;;;;;;;;;;;;0.67;100.00;101686.13;5082727;28;20018;-73
2022/12/19 04:28:41;;;;;;;;;;;;;;;0.71;100.00;101680.72;5081865;28;19916;-73
2022/12/19 04:31:10;;;;;;;;;;;;;;;0.72;100.00;101682.44;5081905;28;20512;-72
2022/12/19 04:33:35;;;;;;;;;;;;;;;0.74;100.00;101691.00;5085322;28;19916;-73
2022/12/19 04:36:00;;;;;;;;;;;;;;;0.77;100.00;101693.47;5086363;28;19972;-73
2022/12/19 04:38:26;;;;;;;;;;;;;;;0.81;100.00;101687.22;5088068;28;19928;-73
2022/12/19 04:40:51;;;;;;;;;;;;;;;0.79;100.00;101691.66;5086454;28;19920;-73
2022/12/19 04:43:16;;;;;;;;;;;;;;;0.85;100.00;101689.69;5086344;28;20664;-73
2022/12/19 04:45:41;;;;;;;;;;;;;;;0.82;100.00;101696.69;5087621;28;19934;-73
2022/12/19 04:48:07;;;;;;;;;;;;;;;0.88;100.00;101693.00;5085999;28;20935;-73
2022/12/19 04:50:32;;;;;;;;;;;;;;;0.91;100.00;101694.63;5088268;28;19920;-73
2022/12/19 04:52:57;;;;;;;;;;;;;;;0.94;100.00;101690.13;5090726;28;20375;-73
2022/12/19 04:55:23;;;;;;;;;;;;;;;0.98;100.00;101690.81;5090850;28;19920;-73
2022/12/19 04:57:48;;;;;;;;;;;;;;;1.00;100.00;101694.22;5089877;28;19920;-73
2022/12/19 05:00:13;;;;;;;;;;;;;;;1.06;100.00;101683.53;5089216;28;19954;-73
2022/12/19 05:02:39;;;;;;;;;;;;;;;1.08;100.00;101680.88;5088522;28;20668;-73
2022/12/19 05:05:04;;;;;;;;;;;;;;;1.12;100.00;101682.44;5086972;28;19986;-73
2022/12/19 05:07:29;;;;;;;;;;;;;;;1.18;100.00;101683.00;5086240;28;19970;-73
2022/12/19 05:09:54;;;;;;;;;;;;;;;1.27;100.00;101691.31;5087663;28;20533;-73
2022/12/19 05:12:20;;;;;;;;;;;;;;;1.35;100.00;101678.78;5086344;28;20761;-73
2022/12/19 05:14:45;;;;;;;;;;;;;;;1.36;100.00;101675.28;5084635;28;19919;-73
2022/12/19 05:17:10;;;;;;;;;;;;;;;1.36;100.00;101664.88;5086871;28;20355;-72
2022/12/19 05:19:35;;;;;;;;;;;;;;;1.46;100.00;101662.69;5085893;28;20596;-73
2022/12/19 05:22:01;;;;;;;;;;;;;;;1.47;100.00;101649.63;5085983;28;20008;-72
2022/12/19 05:24:26;;;;;;;;;;;;;;;1.56;100.00;101651.78;5084844;27;19928;-72
2022/12/19 05:26:51;;;;;;;;;;;;;;;1.60;100.00;101653.31;5085308;28;19919;-72
2022/12/19 05:29:16;;;;;;;;;;;;;;;1.66;100.00;101661.78;5085981;28;20006;-73
2022/12/19 05:31:42;;;;;;;;;;;;;;;1.71;100.00;101651.97;5086869;28;20294;-72
2022/12/19 05:34:07;;;;;;;;;;;;;;;1.77;100.00;101651.69;5083848;28;20212;-72
2022/12/19 05:36:32;;;;;;;;;;;;;;;1.80;100.00;101654.13;5085499;28;19927;-72
2022/12/19 05:38:57;;;;;;;;;;;;;;;1.84;100.00;101660.88;5085271;28;19916;-72
2022/12/19 05:41:23;;;;;;;;;;;;;;;1.88;100.00;101656.38;5087548;28;20022;-72
2022/12/19 05:43:49;;;;;;;;;;;;;;;1.89;100.00;101661.50;5083988;28;19924;-72
2022/12/19 05:46:15;;;;;;;;;;;;;;;1.90;100.00;101668.41;5086138;28;19942;-72
2022/12/19 05:48:40;;;;;;;;;;;;;;;1.99;100.00;101665.34;5084130;28;19919;-72
2022/12/19 05:51:05;;;;;;;;;;;;;;;1.98;100.00;101658.47;5082144;28;20040;-72
2022/12/19 05:53:31;;;;;;;;;;;;;;;2.02;100.00;101659.97;5085237;28;20030;-72
2022/12/19 05:56:07;;;;;;;;;;;;;;;2.02;100.00;101659.97;5082388;27;19971;-72
2022/12/19 05:58:33;;;;;;;;;;;;;;;2.05;100.00;101659.84;5083624;28;19916;-72
2022/12/19 06:01:05;;;;;;;;;;;;;;;2.05;100.00;101666.81;5085816;28;19969;-72
2022/12/19 06:03:30;;;;;;;;;;;;;;;2.09;100.00;101660.56;5085040;28;20230;-72
2022/12/19 06:05:56;;;;;;;;;;;;;;;2.14;100.00;101657.72;5085121;28;20433;-72
2022/12/19 06:08:21;;;;;;;;;;;;;;;2.17;100.00;101652.34;5080461;28;19981;-72
2022/12/19 06:10:46;;;;;;;;;;;;;;;2.20;100.00;101655.66;5085145;28;19924;-73
2022/12/19 06:13:11;;;;;;;;;;;;;;;2.20;100.00;101652.19;5082371;28;19923;-72
2022/12/19 06:15:37;;;;;;;;;;;;;;;2.23;100.00;101652.88;5084173;28;19920;-72
2022/12/19 06:18:02;;;;;;;;;;;;;;;2.20;100.00;101633.94;5088500;28;19915;-73
2022/12/19 06:20:27;;;;;;;;;;;;;;;2.24;100.00;101638.97;5087670;28;19958;-71
2022/12/19 06:22:52;;;;;;;;;;;;;;;2.33;100.00;101637.66;5086574;28;19924;-72
2022/12/19 06:25:18;;;;;;;;;;;;;;;2.33;100.00;101644.59;5089674;28;19945;-72
2022/12/19 06:27:43;;;;;;;;;;;;;;;2.39;100.00;101652.13;5082982;28;20506;-72
2022/12/19 06:30:08;;;;;;;;;;;;;;;2.45;100.00;101642.22;5083412;28;19923;-72
2022/12/19 06:32:34;;;;;;;;;;;;;;;2.43;100.00;101638.84;5082789;28;19959;-72
2022/12/19 06:34:59;;;;;;;;;;;;;;;2.43;100.00;101644.06;5087258;28;19924;-72
2022/12/19 06:37:24;;;;;;;;;;;;;;;2.51;100.00;101635.88;5083642;28;20427;-72
2022/12/19 06:39:50;;;;;;;;;;;;;;;2.54;100.00;101638.31;5082087;28;20409;-72
2022/12/19 06:42:24;;;;;;;;;;;;;;;2.51;100.00;101629.81;5082192;28;19953;-72
2022/12/19 06:44:53;;;;;;;;;;;;;;;2.53;100.00;101641.84;5079769;28;20499;-73
2022/12/19 06:47:19;;;;;;;;;;;;;;;2.58;100.00;101637.22;5084603;28;19946;-72
2022/12/19 06:49:44;;;;;;;;;;;;;;;2.58;100.00;101636.41;5085804;28;20029;-72
2022/12/19 06:52:09;;;;;;;;;;;;;;;2.62;100.00;101630.09;5083162;28;19931;-73
2022/12/19 06:54:35;;;;;;;;;;;;;;;2.62;100.00;101633.56;5089153;28;19962;-74
2022/12/19 06:57:00;;;;;;;;;;;;;;;2.64;100.00;101626.50;5087790;28;19915;-73
2022/12/19 06:59:25;;;;;;;;;;;;;;;2.67;100.00;101612.47;5088282;28;19916;-73
2022/12/19 07:01:54;;;;;;;;;;;;;;;2.67;100.00;101617.66;5087256;28;19915;-73
2022/12/19 07:04:23;;;;;;;;;;;;;;;2.69;100.00;101608.00;5093887;28;19916;-73
2022/12/19 07:06:49;;;;;;;;;;;;;;;2.71;100.00;101603.56;5088516;28;19923;-73
2022/12/19 07:09:14;;;;;;;;;;;;;;;2.76;100.00;101603.31;5088012;28;19918;-74
2022/12/19 07:11:39;;;;;;;;;;;;;;;2.79;100.00;101604.00;5084947;28;19916;-73
2022/12/19 07:14:05;;;;;;;;;;;;;;;2.81;100.00;101602.16;5086810;28;20046;-74
2022/12/19 07:16:30;;;;;;;;;;;;;;;2.85;100.00;101616.72;5086710;28;20015;-74
2022/12/19 07:18:55;;;;;;;;;;;;;;;2.89;100.00;101620.81;5087065;28;19943;-72
2022/12/19 07:21:21;;;;;;;;;;;;;;;2.92;100.00;101609.41;5084492;28;19915;-73
2022/12/19 07:23:46;;;;;;;;;;;;;;;2.99;100.00;101625.56;5085810;28;19947;-73
2022/12/19 07:26:12;;;;;;;;;;;;;;;3.02;100.00;101626.22;5086183;28;19963;-73
2022/12/19 07:28:37;;;;;;;;;;;;;;;3.08;100.00;101630.28;5087319;28;20366;-73
2022/12/19 07:31:03;;;;;;;;;;;;;;;3.12;100.00;101626.59;5085645;28;19989;-74
2022/12/19 07:33:28;;;;;;;;;;;;;;;3.19;100.00;101638.38;5086241;28;20481;-73
2022/12/19 07:35:53;;;;;;;;;;;;;;;3.23;100.00;101629.47;5085808;28;19974;-73
2022/12/19 07:38:18;;;;;;;;;;;;;;;3.32;100.00;101625.50;5086866;28;19916;-73
2022/12/19 07:40:44;;;;;;;;;;;;;;;3.26;100.00;101623.22;5087505;28;19916;-73
2022/12/19 07:43:09;;;;;;;;;;;;;;;3.29;100.00;101634.34;5085919;28;19919;-73
2022/12/19 07:45:38;;;;;;;;;;;;;;;3.30;100.00;101628.19;5085983;28;19916;-73
2022/12/19 07:48:04;;;;;;;;;;;;;;;3.28;100.00;101622.22;5092630;28;19916;-73
2022/12/19 07:50:29;;;;;;;;;;;;;;;3.34;100.00;101631.47;5085203;28;19919;-73
2022/12/19 07:52:54;;;;;;;;;;;;;;;3.37;100.00;101615.66;5069045;28;20244;-73
2022/12/19 07:55:20;;;;;;;;;;;;;;;3.44;100.00;101622.22;5085522;28;19954;-73
2022/12/19 07:57:45;;;;;;;;;;;;;;;3.51;100.00;101627.94;5083978;28;19912;-73
2022/12/19 08:00:11;;;;;;;;;;;;;;;3.50;100.00;101621.03;5068413;28;20214;-73
2022/12/19 08:02:36;;;;;;;;;;;;;;;3.55;100.00;101628.59;5084810;28;19922;-74
2022/12/19 08:05:02;;;;;;;;;;;;;;;3.60;100.00;101627.44;5086962;28;20442;-74
2022/12/19 08:07:27;;;;;;;;;;;;;;;3.65;100.00;101643.66;5084948;28;19912;-74
2022/12/19 08:09:53;;;;;;;;;;;;;;;3.67;100.00;101633.16;5085809;28;20587;-74
2022/12/19 08:12:19;;;;;;;;;;;;;;;3.69;100.00;101634.75;5088779;28;19915;-73
2022/12/19 08:14:44;;;;;;;;;;;;;;;3.73;100.00;101642.41;5104752;27;19912;-73
2022/12/19 08:17:09;;;;;;;;;;;;;;;3.68;100.00;101635.69;5090280;28;20377;-73
2022/12/19 08:19:35;;;;;;;;;;;;;;;3.68;100.00;101643.50;5089832;28;20454;-73
2022/12/19 08:22:00;;;;;;;;;;;;;;;3.71;100.00;101637.28;5089067;28;19990;-73
2022/12/19 08:24:25;;;;;;;;;;;;;;;3.75;100.00;101635.34;5088878;28;20272;-73
2022/12/19 08:26:51;;;;;;;;;;;;;;;3.73;100.00;101634.59;5090278;28;20343;-73
2022/12/19 08:29:16;;;;;;;;;;;;;;;3.77;100.00;101636.06;5089336;28;19920;-73
2022/12/19 08:31:41;;;;;;;;;;;;;;;3.78;100.00;101632.53;5089296;28;19918;-73
2022/12/19 08:34:06;;;;;;;;;;;;;;;3.81;100.00;101637.59;5089708;28;19920;-73
2022/12/19 08:36:32;;;;;;;;;;;;;;;3.84;100.00;101646.09;5088900;28;19964;-73
2022/12/19 08:38:57;;;;;;;;;;;;;;;3.89;100.00;101635.38;5089149;28;19922;-73
2022/12/19 08:41:22;;;;;;;;;;;;;;;3.88;100.00;101639.78;5070391;28;19919;-73
2022/12/19 08:43:48;;;;;;;;;;;;;;;3.90;100.00;101642.31;5090268;28;19968;-73
2022/12/19 08:46:14;;;;;;;;;;;;;;;3.95;100.00;101640.25;5089894;28;20114;-73
2022/12/19 08:48:39;;;;;;;;;;;;;;;3.97;100.00;101646.25;5087940;28;20298;-74
2022/12/19 08:51:05;;;;;;;;;;;;;;;4.04;100.00;101638.91;5088535;28;19969;-74
2022/12/19 08:53:32;;;;;;;;;;;;;;;4.04;100.00;101651.97;5088672;28;19956;-73
2022/12/19 08:55:58;;;;;;;;;;;;;;;4.11;100.00;101667.19;5089719;28;19981;-73
2022/12/19 08:58:24;;;;;;;;;;;;;;;4.13;100.00;101630.53;5088195;28;20534;-73
2022/12/19 09:00:52;;;;;;;;;;;;;;;4.17;100.00;101658.16;5089483;28;20273;-73
2022/12/19 09:03:17;;;;;;;;;;;;;;;4.19;100.00;101658.06;5088913;28;20386;-73
2022/12/19 09:05:42;;;;;;;;;;;;;;;4.25;100.00;101670.78;5089373;28;19968;-74
2022/12/19 09:08:08;;;;;;;;;;;;;;;4.25;100.00;101658.56;5088320;28;20007;-73
2022/12/19 09:10:36;;;;;;;;;;;;;;;4.26;100.00;101667.22;5089003;28;19924;-73
2022/12/19 09:13:02;;;;;;;;;;;;;;;4.33;100.00;101674.66;5088730;28;20400;-73
2022/12/19 09:15:29;;;;;;;;;;;;;;;4.35;100.00;101660.63;5090007;28;19916;-73
2022/12/19 09:17:54;;;;;;;;;;;;;;;4.39;100.00;101670.81;5088240;28;20382;-73
2022/12/19 09:20:20;;;;;;;;;;;;;;;4.42;100.00;101670.66;5088839;28;19957;-73
2022/12/19 09:22:45;;;;;;;;;;;;;;;4.42;100.00;101678.50;5088057;28;19966;-73
2022/12/19 09:25:11;;;;;;;;;;;;;;;4.44;100.00;101681.84;5088725;28;19923;-73
2022/12/19 09:27:36;;;;;;;;;;;;;;;4.49;100.00;101676.34;5087512;28;19973;-73
2022/12/19 09:30:02;;;;;;;;;;;;;;;4.57;100.00;101681.13;5070182;28;19922;-73
2022/12/19 09:32:27;;;;;;;;;;;;;;;4.61;100.00;101687.84;5087596;28;19916;-73
2022/12/19 09:34:52;;;;;;;;;;;;;;;4.63;100.00;101686.00;5086964;28;19969;-73
2022/12/19 09:37:17;;;;;;;;;;;;;;;4.66;100.00;101684.03;5089145;28;19923;-73
2022/12/19 09:39:44;;;;;;;;;;;;;;;4.70;100.00;101687.31;5087556;28;19915;-73
2022/12/19 09:42:18;;;;;;;;;;;;;;;4.74;100.00;101683.56;5086706;28;20559;-73
2022/12/19 09:45:05;;;;;;;;;;;;;;;4.79;100.00;101684.16;5088117;28;19915;-73
2022/12/19 09:47:31;;;;;;;;;;;;;;;4.85;100.00;101672.47;5087848;28;19938;-73
2022/12/19 09:49:58;;;;;;;;;;;;;;;4.93;100.00;101678.09;5087853;28;19928;-73
2022/12/19 09:52:24;;;;;;;;;;;;;;;4.97;100.00;101689.22;5088552;28;20215;-73
2022/12/19 09:54:55;;;;;;;;;;;;;;;5.01;100.00;101685.44;5088441;28;19911;-73
2022/12/19 09:57:33;;;;;;;;;;;;;;;5.05;100.00;101684.34;5087329;28;19918;-73
2022/12/19 10:00:03;;;;;;;;;;;;;;;5.09;100.00;101689.28;5088088;28;19912;-73
2022/12/19 10:02:32;;;;;;;;;;;;;;;5.16;100.00;101689.75;5087721;28;19962;-73
2022/12/19 10:05:16;;;;;;;;;;;;;;;5.22;100.00;101691.16;5087626;28;19916;-73
2022/12/19 10:07:42;;;;;;;;;;;;;;;5.25;100.00;101704.91;5087637;28;20013;-74
2022/12/19 10:10:12;;;;;;;;;;;;;;;5.24;100.00;101700.59;5087505;28;19962;-74
2022/12/19 10:12:47;;;;;;;;;;;;;;;5.26;100.00;101690.88;5087719;28;20469;-73
2022/12/19 10:15:18;;;;;;;;;;;;;;;5.34;100.00;101688.63;5087135;28;19965;-73
2022/12/19 10:17:52;;;;;;;;;;;;;;;5.33;100.00;101686.97;5087204;28;20342;-73
2022/12/19 10:20:27;;;;;;;;;;;;;;;5.39;100.00;101690.13;5088273;28;20285;-73
2022/12/19 10:23:11;;;;;;;;;;;;;;;5.44;100.00;101682.81;5087686;28;20386;-73
2022/12/19 10:25:54;;;;;;;;;;;;;;;5.49;100.00;101680.75;5085795;28;19919;-74
2022/12/19 10:28:20;;;;;;;;;;;;;;;5.55;100.00;101685.59;5085445;28;20322;-73
2022/12/19 10:31:08;;;;;;;;;;;;;;;5.59;100.00;101676.59;5087504;28;19911;-73
2022/12/19 10:33:42;;;;;;;;;;;;;;;5.64;100.00;101682.41;5085696;28;19912;-74
2022/12/19 10:36:09;;;;;;;;;;;;;;;5.67;100.00;101674.34;5087585;28;20532;-73
2022/12/19 10:38:42;;;;;;;;;;;;;;;5.70;100.00;101682.00;5087933;28;20045;-73
2022/12/19 10:41:16;;;;;;;;;;;;;;;5.76;100.00;101673.75;5094999;28;20456;-73
2022/12/19 10:44:08;;;;;;;;;;;;;;;5.85;100.00;101692.44;5092875;28;20465;-73
2022/12/19 10:46:37;;;;;;;;;;;;;;;5.91;100.00;101684.19;5089054;28;19915;-73
2022/12/19 10:49:10;;;;;;;;;;;;;;;5.93;100.00;101674.47;5083551;28;19993;-73
2022/12/19 10:51:35;;;;;;;;;;;;;;;5.94;100.00;101671.78;5084130;28;19912;-73
2022/12/19 10:54:01;;;;;;;;;;;;;;;5.94;100.00;101665.63;5088028;28;19982;-74
2022/12/19 10:56:28;;;;;;;;;;;;;;;5.99;100.00;101658.38;5094768;28;20186;-74
2022/12/19 10:58:57;;;;;;;;;;;;;;;5.99;100.00;101666.22;5096904;28;20389;-74
2022/12/19 11:01:25;;;;;;;;;;;;;;;6.02;100.00;101668.66;5096349;28;19959;-74
2022/12/19 11:03:55;;;;;;;;;;;;;;;6.03;100.00;101669.47;5089248;28;20153;-74
2022/12/19 11:06:39;;;;;;;;;;;;;;;6.04;100.00;101664.16;5092793;28;19919;-72
2022/12/19 11:09:17;;;;;;;;;;;;;;;6.09;100.00;101643.72;5098754;28;19935;-73
2022/12/19 11:11:45;;;;;;;;;;;;;;;6.09;100.00;101648.94;5090934;28;19912;-73
2022/12/19 11:14:30;;;;;;;;;;;;;;;6.14;100.00;101638.16;5094283;28;19965;-73
2022/12/19 11:16:55;;;;;;;;;;;;;;;6.16;100.00;101641.50;5093135;28;19912;-74
2022/12/19 11:19:25;;;;;;;;;;;;;;;6.24;100.00;101643.63;5086935;28;19926;-74
2022/12/19 11:21:50;;;;;;;;;;;;;;;6.26;100.00;101639.97;5086465;28;19920;-74
2022/12/19 11:24:24;;;;;;;;;;;;;;;6.30;100.00;101645.84;5086090;28;19927;-74
2022/12/19 11:26:50;;;;;;;;;;;;;;;6.30;100.00;101643.25;5086919;28;20217;-74
2022/12/19 11:29:15;;;;;;;;;;;;;;;6.33;100.00;101643.03;5086430;28;20293;-73
2022/12/19 11:31:41;;;;;;;;;;;;;;;6.38;100.00;101635.72;5086092;28;19918;-73
2022/12/19 11:34:13;;;;;;;;;;;;;;;6.39;100.00;101642.63;5085010;28;20198;-73
2022/12/19 11:37:16;;;;;;;;;;;;;;;6.43;100.00;101641.47;5086520;28;19922;-74
2022/12/19 11:39:47;;;;;;;;;;;;;;;6.45;100.00;101629.09;5013411;28;19921;-73
2022/12/19 11:42:21;;;;;;;;;;;;;;;6.50;100.00;101632.22;5012834;28;19943;-73
2022/12/19 11:44:52;;;;;;;;;;;;;;;6.50;100.00;101637.47;5011030;28;19931;-73
2022/12/19 11:47:40;;;;;;;;;;;;;;;6.53;100.00;101626.78;5012309;28;19917;-73
2022/12/19 11:50:35;;;;;;;;;;;;;;;6.56;100.00;101621.34;5012306;28;19913;-73
2022/12/19 11:53:08;;;;;;;;;;;;;;;6.62;100.00;101619.22;5005873;28;20316;-73
2022/12/19 11:55:34;;;;;;;;;;;;;;;6.59;100.00;101621.09;5011427;28;19937;-73
2022/12/19 11:57:59;;;;;;;;;;;;;;;6.64;100.00;101614.72;5013288;28;20378;-73
2022/12/19 12:00:24;;;;;;;;;;;;;;;6.67;100.00;101617.97;5012498;28;19963;-73
2022/12/19 12:02:55;;;;;;;;;;;;;;;6.73;100.00;101612.31;5012685;28;19952;-74
2022/12/19 12:05:39;;;;;;;;;;;;;;;6.79;100.00;101616.28;5012082;28;20545;-73
2022/12/19 12:08:32;;;;;;;;;;;;;;;6.89;100.00;101611.25;5012725;28;20094;-73
2022/12/19 12:11:07;;;;;;;;;;;;;;;6.92;100.00;101606.59;5066312;28;19916;-73
2022/12/19 12:14:00;;;;;;;;;;;;;;;6.96;100.00;101597.56;5083845;28;20485;-73
2022/12/19 12:16:32;;;;;;;;;;;;;;;7.00;100.00;101596.41;5085617;28;20475;-73
2022/12/19 12:19:13;;;;;;;;;;;;;;;7.03;100.00;101603.22;5085121;28;19927;-73
2022/12/19 12:21:49;;;;;;;;;;;;;;;7.06;100.00;101589.06;5085101;28;20215;-73
2022/12/19 12:24:20;;;;;;;;;;;;;;;7.08;100.00;101580.13;5084992;28;19916;-73
2022/12/19 12:26:56;;;;;;;;;;;;;;;7.11;100.00;101579.06;5085962;28;19908;-73
2022/12/19 12:29:30;;;;;;;;;;;;;;;7.09;100.00;101583.59;5085788;28;20022;-73
2022/12/19 12:31:56;;;;;;;;;;;;;;;7.13;100.00;101578.00;5084801;28;20343;-73
2022/12/19 12:34:34;;;;;;;;;;;;;;;7.19;100.00;101572.31;5085029;28;20488;-73
2022/12/19 12:37:15;;;;;;;;;;;;;;;7.21;100.00;101569.59;5085932;28;20407;-73
2022/12/19 12:39:53;;;;;;;;;;;;;;;7.20;100.00;101567.91;5084923;28;19934;-73
2022/12/19 12:42:22;;;;;;;;;;;;;;;7.22;100.00;101561.56;5085375;28;19919;-73
2022/12/19 12:44:49;;;;;;;;;;;;;;;7.23;100.00;101562.44;5085567;28;20242;-73